sensor_id;sensor_type;location;lat;lon;timestamp;P1;durP1;ratioP1;P2;durP2;ratioP2
57441;SDS011;43284;47.042;15.498;2022-12-07T00:01:31;85.10;;;17.13;;
57441;SDS011;43284;47.042;15.498;2022-12-07T00:04:00;64.45;;;15.57;;
57441;SDS011;43284;47.042;15.498;2022-12-07T00:06:34;63.38;;;14.50;;
57441;SDS011;43284;47.042;15.498;2022-12-07T00:09:02;53.38;;;15.40;;
57441;SDS011;43284;47.042;15.498;2022-12-07T00:11:29;40.45;;;14.52;;
57441;SDS011;43284;47.042;15.498;2022-12-07T00:13:56;47.17;;;14.02;;
57441;SDS011;43284;47.042;15.498;2022-12-07T00:16:25;64.07;;;15.68;;
57441;SDS011;43284;47.042;15.498;2022-12-07T00:18:52;90.53;;;18.25;;
57441;SDS011;43284;47.042;15.498;2022-12-07T00:21:19;79.93;;;16.48;;
57441;SDS011;43284;47.042;15.498;2022-12-07T00:23:49;84.45;;;16.63;;
57441;SDS011;43284;47.042;15.498;2022-12-07T00:26:17;86.43;;;16.13;;
57441;SDS011;43284;47.042;15.498;2022-12-07T00:28:51;42.92;;;15.55;;
57441;SDS011;43284;47.042;15.498;2022-12-07T00:31:22;42.42;;;14.65;;
57441;SDS011;43284;47.042;15.498;2022-12-07T00:33:49;70.43;;;15.25;;
57441;SDS011;43284;47.042;15.498;2022-12-07T00:36:16;36.00;;;13.80;;
57441;SDS011;43284;47.042;15.498;2022-12-07T00:38:43;61.58;;;15.13;;
57441;SDS011;43284;47.042;15.498;2022-12-07T00:41:10;36.58;;;15.20;;
57441;SDS011;43284;47.042;15.498;2022-12-07T00:43:37;49.72;;;15.93;;
57441;SDS011;43284;47.042;15.498;2022-12-07T00:46:04;48.05;;;16.88;;
57441;SDS011;43284;47.042;15.498;2022-12-07T00:48:30;54.97;;;17.00;;
57441;SDS011;43284;47.042;15.498;2022-12-07T00:50:56;37.58;;;15.35;;
57441;SDS011;43284;47.042;15.498;2022-12-07T00:53:22;45.38;;;18.08;;
57441;SDS011;43284;47.042;15.498;2022-12-07T00:55:47;46.90;;;17.58;;
57441;SDS011;43284;47.042;15.498;2022-12-07T00:58:13;44.97;;;16.30;;
57441;SDS011;43284;47.042;15.498;2022-12-07T01:00:40;47.22;;;16.60;;
57441;SDS011;43284;47.042;15.498;2022-12-07T01:03:07;56.58;;;17.60;;
57441;SDS011;43284;47.042;15.498;2022-12-07T01:05:35;40.88;;;15.77;;
57441;SDS011;43284;47.042;15.498;2022-12-07T01:08:01;50.40;;;16.65;;
57441;SDS011;43284;47.042;15.498;2022-12-07T01:10:27;47.55;;;17.20;;
57441;SDS011;43284;47.042;15.498;2022-12-07T01:12:53;72.20;;;17.77;;
57441;SDS011;43284;47.042;15.498;2022-12-07T01:15:19;47.22;;;14.82;;
57441;SDS011;43284;47.042;15.498;2022-12-07T01:17:44;80.15;;;17.38;;
57441;SDS011;43284;47.042;15.498;2022-12-07T01:20:10;52.03;;;14.98;;
57441;SDS011;43284;47.042;15.498;2022-12-07T01:22:40;40.55;;;15.75;;
57441;SDS011;43284;47.042;15.498;2022-12-07T01:25:07;35.22;;;13.68;;
57441;SDS011;43284;47.042;15.498;2022-12-07T01:27:34;42.45;;;13.85;;
57441;SDS011;43284;47.042;15.498;2022-12-07T01:30:02;38.88;;;14.70;;
57441;SDS011;43284;47.042;15.498;2022-12-07T01:32:31;126.25;;;17.48;;
57441;SDS011;43284;47.042;15.498;2022-12-07T01:34:57;61.03;;;17.80;;
57441;SDS011;43284;47.042;15.498;2022-12-07T01:37:23;50.80;;;15.45;;
57441;SDS011;43284;47.042;15.498;2022-12-07T01:39:49;44.25;;;15.45;;
57441;SDS011;43284;47.042;15.498;2022-12-07T01:42:15;47.10;;;15.65;;
57441;SDS011;43284;47.042;15.498;2022-12-07T01:47:45;89.47;;;19.20;;
57441;SDS011;43284;47.042;15.498;2022-12-07T01:50:16;37.08;;;16.00;;
57441;SDS011;43284;47.042;15.498;2022-12-07T01:52:43;35.78;;;15.75;;
57441;SDS011;43284;47.042;15.498;2022-12-07T01:55:14;55.30;;;18.17;;
57441;SDS011;43284;47.042;15.498;2022-12-07T01:57:42;52.88;;;18.25;;
57441;SDS011;43284;47.042;15.498;2022-12-07T02:00:12;55.10;;;18.90;;
57441;SDS011;43284;47.042;15.498;2022-12-07T02:02:48;45.25;;;17.80;;
57441;SDS011;43284;47.042;15.498;2022-12-07T02:05:19;53.80;;;17.65;;
57441;SDS011;43284;47.042;15.498;2022-12-07T02:07:45;49.35;;;16.88;;
57441;SDS011;43284;47.042;15.498;2022-12-07T02:12:47;78.07;;;17.05;;
57441;SDS011;43284;47.042;15.498;2022-12-07T02:15:16;81.72;;;17.42;;
57441;SDS011;43284;47.042;15.498;2022-12-07T02:28:12;61.28;;;16.23;;
57441;SDS011;43284;47.042;15.498;2022-12-07T02:30:40;72.10;;;16.15;;
57441;SDS011;43284;47.042;15.498;2022-12-07T02:35:48;46.40;;;14.77;;
57441;SDS011;43284;47.042;15.498;2022-12-07T02:38:25;63.75;;;16.73;;
57441;SDS011;43284;47.042;15.498;2022-12-07T02:41:04;52.45;;;15.23;;
57441;SDS011;43284;47.042;15.498;2022-12-07T02:43:35;43.90;;;14.63;;
57441;SDS011;43284;47.042;15.498;2022-12-07T02:46:14;43.70;;;14.15;;
57441;SDS011;43284;47.042;15.498;2022-12-07T02:48:45;40.13;;;12.75;;
57441;SDS011;43284;47.042;15.498;2022-12-07T02:51:12;51.78;;;13.77;;
57441;SDS011;43284;47.042;15.498;2022-12-07T02:53:39;48.72;;;13.95;;
57441;SDS011;43284;47.042;15.498;2022-12-07T02:56:50;36.42;;;13.07;;
57441;SDS011;43284;47.042;15.498;2022-12-07T03:06:56;29.38;;;12.38;;
57441;SDS011;43284;47.042;15.498;2022-12-07T03:12:26;39.20;;;13.32;;
57441;SDS011;43284;47.042;15.498;2022-12-07T03:15:01;42.95;;;13.63;;
57441;SDS011;43284;47.042;15.498;2022-12-07T03:17:34;41.20;;;12.00;;
57441;SDS011;43284;47.042;15.498;2022-12-07T03:20:04;41.35;;;13.98;;
57441;SDS011;43284;47.042;15.498;2022-12-07T03:22:33;36.42;;;11.80;;
57441;SDS011;43284;47.042;15.498;2022-12-07T03:25:04;35.95;;;12.98;;
57441;SDS011;43284;47.042;15.498;2022-12-07T03:27:39;39.00;;;13.73;;
57441;SDS011;43284;47.042;15.498;2022-12-07T03:30:10;32.90;;;12.65;;
57441;SDS011;43284;47.042;15.498;2022-12-07T03:32:45;46.03;;;14.20;;
57441;SDS011;43284;47.042;15.498;2022-12-07T03:35:20;37.75;;;14.30;;
57441;SDS011;43284;47.042;15.498;2022-12-07T03:40:39;35.38;;;13.20;;
57441;SDS011;43284;47.042;15.498;2022-12-07T03:43:09;36.42;;;11.75;;
57441;SDS011;43284;47.042;15.498;2022-12-07T03:45:41;45.67;;;14.23;;
57441;SDS011;43284;47.042;15.498;2022-12-07T03:48:14;38.30;;;11.65;;
57441;SDS011;43284;47.042;15.498;2022-12-07T03:50:55;24.58;;;10.73;;
57441;SDS011;43284;47.042;15.498;2022-12-07T03:53:37;25.33;;;10.32;;
57441;SDS011;43284;47.042;15.498;2022-12-07T03:56:07;25.67;;;11.55;;
57441;SDS011;43284;47.042;15.498;2022-12-07T03:58:34;26.30;;;11.20;;
57441;SDS011;43284;47.042;15.498;2022-12-07T04:01:00;22.85;;;11.18;;
57441;SDS011;43284;47.042;15.498;2022-12-07T04:03:26;25.23;;;10.48;;
57441;SDS011;43284;47.042;15.498;2022-12-07T04:05:52;54.33;;;12.73;;
57441;SDS011;43284;47.042;15.498;2022-12-07T04:08:18;26.00;;;9.90;;
57441;SDS011;43284;47.042;15.498;2022-12-07T04:10:43;34.50;;;10.18;;
57441;SDS011;43284;47.042;15.498;2022-12-07T04:13:09;21.25;;;9.75;;
57441;SDS011;43284;47.042;15.498;2022-12-07T04:15:35;19.10;;;9.07;;
57441;SDS011;43284;47.042;15.498;2022-12-07T04:18:00;24.85;;;10.30;;
57441;SDS011;43284;47.042;15.498;2022-12-07T04:20:28;18.75;;;9.25;;
57441;SDS011;43284;47.042;15.498;2022-12-07T04:22:53;22.63;;;10.45;;
57441;SDS011;43284;47.042;15.498;2022-12-07T04:25:20;22.73;;;10.10;;
57441;SDS011;43284;47.042;15.498;2022-12-07T04:27:45;21.90;;;9.80;;
57441;SDS011;43284;47.042;15.498;2022-12-07T04:30:11;21.77;;;9.95;;
57441;SDS011;43284;47.042;15.498;2022-12-07T04:32:38;18.88;;;9.15;;
57441;SDS011;43284;47.042;15.498;2022-12-07T04:35:03;22.40;;;10.70;;
57441;SDS011;43284;47.042;15.498;2022-12-07T04:37:29;21.20;;;9.55;;
57441;SDS011;43284;47.042;15.498;2022-12-07T04:39:55;21.75;;;9.88;;
57441;SDS011;43284;47.042;15.498;2022-12-07T04:42:20;20.85;;;9.70;;
57441;SDS011;43284;47.042;15.498;2022-12-07T04:44:46;19.27;;;9.02;;
57441;SDS011;43284;47.042;15.498;2022-12-07T04:47:11;19.33;;;10.25;;
57441;SDS011;43284;47.042;15.498;2022-12-07T04:49:37;21.25;;;9.23;;
57441;SDS011;43284;47.042;15.498;2022-12-07T04:52:03;17.25;;;8.75;;
57441;SDS011;43284;47.042;15.498;2022-12-07T04:54:28;17.50;;;9.27;;
57441;SDS011;43284;47.042;15.498;2022-12-07T04:56:54;17.70;;;7.60;;
57441;SDS011;43284;47.042;15.498;2022-12-07T04:59:19;16.90;;;9.32;;
57441;SDS011;43284;47.042;15.498;2022-12-07T05:01:45;18.38;;;8.80;;
57441;SDS011;43284;47.042;15.498;2022-12-07T05:04:10;16.30;;;8.20;;
57441;SDS011;43284;47.042;15.498;2022-12-07T05:06:37;18.58;;;8.70;;
57441;SDS011;43284;47.042;15.498;2022-12-07T05:09:03;19.48;;;9.30;;
57441;SDS011;43284;47.042;15.498;2022-12-07T05:11:29;15.18;;;8.48;;
57441;SDS011;43284;47.042;15.498;2022-12-07T05:14:05;16.73;;;8.77;;
57441;SDS011;43284;47.042;15.498;2022-12-07T05:16:36;18.45;;;8.45;;
57441;SDS011;43284;47.042;15.498;2022-12-07T05:19:02;18.13;;;9.40;;
57441;SDS011;43284;47.042;15.498;2022-12-07T05:21:28;17.67;;;8.75;;
57441;SDS011;43284;47.042;15.498;2022-12-07T05:23:53;21.27;;;9.63;;
57441;SDS011;43284;47.042;15.498;2022-12-07T05:26:20;22.48;;;8.43;;
57441;SDS011;43284;47.042;15.498;2022-12-07T05:28:50;21.40;;;10.18;;
57441;SDS011;43284;47.042;15.498;2022-12-07T05:31:19;24.20;;;10.10;;
57441;SDS011;43284;47.042;15.498;2022-12-07T05:33:45;27.45;;;10.52;;
57441;SDS011;43284;47.042;15.498;2022-12-07T05:36:10;20.27;;;9.43;;
57441;SDS011;43284;47.042;15.498;2022-12-07T05:38:36;24.27;;;10.45;;
57441;SDS011;43284;47.042;15.498;2022-12-07T05:41:02;20.80;;;9.13;;
57441;SDS011;43284;47.042;15.498;2022-12-07T05:43:29;24.70;;;10.40;;
57441;SDS011;43284;47.042;15.498;2022-12-07T05:45:55;18.25;;;9.15;;
57441;SDS011;43284;47.042;15.498;2022-12-07T05:48:21;19.65;;;9.93;;
57441;SDS011;43284;47.042;15.498;2022-12-07T05:50:47;21.15;;;9.40;;
57441;SDS011;43284;47.042;15.498;2022-12-07T05:53:13;19.98;;;10.05;;
57441;SDS011;43284;47.042;15.498;2022-12-07T05:55:39;19.40;;;9.35;;
57441;SDS011;43284;47.042;15.498;2022-12-07T05:58:04;22.50;;;10.32;;
57441;SDS011;43284;47.042;15.498;2022-12-07T06:03:14;17.48;;;8.80;;
57441;SDS011;43284;47.042;15.498;2022-12-07T06:05:39;24.33;;;10.25;;
57441;SDS011;43284;47.042;15.498;2022-12-07T06:08:05;30.58;;;12.00;;
57441;SDS011;43284;47.042;15.498;2022-12-07T06:10:30;25.45;;;11.82;;
57441;SDS011;43284;47.042;15.498;2022-12-07T06:12:56;29.95;;;11.32;;
57441;SDS011;43284;47.042;15.498;2022-12-07T06:15:22;23.73;;;11.00;;
57441;SDS011;43284;47.042;15.498;2022-12-07T06:17:48;23.40;;;10.38;;
57441;SDS011;43284;47.042;15.498;2022-12-07T06:20:14;22.80;;;11.35;;
57441;SDS011;43284;47.042;15.498;2022-12-07T06:22:39;26.38;;;12.30;;
57441;SDS011;43284;47.042;15.498;2022-12-07T06:25:05;22.77;;;9.85;;
57441;SDS011;43284;47.042;15.498;2022-12-07T06:27:31;26.65;;;11.38;;
57441;SDS011;43284;47.042;15.498;2022-12-07T06:29:57;21.77;;;11.45;;
57441;SDS011;43284;47.042;15.498;2022-12-07T06:32:23;21.77;;;10.88;;
57441;SDS011;43284;47.042;15.498;2022-12-07T06:34:49;72.97;;;11.63;;
57441;SDS011;43284;47.042;15.498;2022-12-07T06:37:16;130.65;;;14.35;;
57441;SDS011;43284;47.042;15.498;2022-12-07T06:39:42;37.65;;;11.23;;
57441;SDS011;43284;47.042;15.498;2022-12-07T06:42:08;29.15;;;10.48;;
57441;SDS011;43284;47.042;15.498;2022-12-07T06:44:33;48.13;;;13.10;;
57441;SDS011;43284;47.042;15.498;2022-12-07T06:46:59;31.15;;;11.20;;
57441;SDS011;43284;47.042;15.498;2022-12-07T06:49:24;24.50;;;10.77;;
57441;SDS011;43284;47.042;15.498;2022-12-07T06:51:50;39.15;;;12.80;;
57441;SDS011;43284;47.042;15.498;2022-12-07T06:54:15;41.63;;;12.45;;
57441;SDS011;43284;47.042;15.498;2022-12-07T06:56:41;35.30;;;11.10;;
57441;SDS011;43284;47.042;15.498;2022-12-07T06:59:07;48.60;;;11.35;;
57441;SDS011;43284;47.042;15.498;2022-12-07T07:01:34;89.82;;;13.20;;
57441;SDS011;43284;47.042;15.498;2022-12-07T07:04:01;40.58;;;11.68;;
57441;SDS011;43284;47.042;15.498;2022-12-07T07:06:26;39.63;;;11.10;;
57441;SDS011;43284;47.042;15.498;2022-12-07T07:08:52;36.70;;;11.98;;
57441;SDS011;43284;47.042;15.498;2022-12-07T07:11:17;31.30;;;10.65;;
57441;SDS011;43284;47.042;15.498;2022-12-07T07:13:44;33.15;;;11.50;;
57441;SDS011;43284;47.042;15.498;2022-12-07T07:16:10;26.48;;;10.85;;
57441;SDS011;43284;47.042;15.498;2022-12-07T07:18:35;26.10;;;11.60;;
57441;SDS011;43284;47.042;15.498;2022-12-07T07:21:01;33.05;;;12.13;;
57441;SDS011;43284;47.042;15.498;2022-12-07T07:23:27;27.60;;;11.15;;
57441;SDS011;43284;47.042;15.498;2022-12-07T07:25:52;25.17;;;10.48;;
57441;SDS011;43284;47.042;15.498;2022-12-07T07:28:18;44.70;;;12.00;;
57441;SDS011;43284;47.042;15.498;2022-12-07T07:30:44;34.72;;;12.88;;
57441;SDS011;43284;47.042;15.498;2022-12-07T07:33:09;33.30;;;11.55;;
57441;SDS011;43284;47.042;15.498;2022-12-07T07:35:36;35.47;;;12.43;;
57441;SDS011;43284;47.042;15.498;2022-12-07T07:38:01;29.77;;;12.35;;
57441;SDS011;43284;47.042;15.498;2022-12-07T07:40:27;30.65;;;12.00;;
57441;SDS011;43284;47.042;15.498;2022-12-07T07:42:56;33.28;;;12.88;;
57441;SDS011;43284;47.042;15.498;2022-12-07T07:45:23;29.88;;;11.80;;
57441;SDS011;43284;47.042;15.498;2022-12-07T07:47:50;28.75;;;12.00;;
57441;SDS011;43284;47.042;15.498;2022-12-07T07:50:16;28.27;;;12.68;;
57441;SDS011;43284;47.042;15.498;2022-12-07T07:52:43;36.40;;;13.57;;
57441;SDS011;43284;47.042;15.498;2022-12-07T07:55:09;30.70;;;12.25;;
57441;SDS011;43284;47.042;15.498;2022-12-07T07:57:35;32.63;;;15.10;;
57441;SDS011;43284;47.042;15.498;2022-12-07T08:00:03;34.85;;;14.57;;
57441;SDS011;43284;47.042;15.498;2022-12-07T08:02:31;32.70;;;12.50;;
57441;SDS011;43284;47.042;15.498;2022-12-07T08:04:56;29.83;;;13.10;;
57441;SDS011;43284;47.042;15.498;2022-12-07T08:07:22;31.30;;;12.82;;
57441;SDS011;43284;47.042;15.498;2022-12-07T08:09:47;31.45;;;14.82;;
57441;SDS011;43284;47.042;15.498;2022-12-07T08:12:13;33.08;;;14.30;;
57441;SDS011;43284;47.042;15.498;2022-12-07T08:14:38;34.67;;;14.63;;
57441;SDS011;43284;47.042;15.498;2022-12-07T08:17:04;31.58;;;13.00;;
57441;SDS011;43284;47.042;15.498;2022-12-07T08:19:29;28.58;;;13.30;;
57441;SDS011;43284;47.042;15.498;2022-12-07T08:21:55;33.83;;;14.43;;
57441;SDS011;43284;47.042;15.498;2022-12-07T08:24:21;30.27;;;13.98;;
57441;SDS011;43284;47.042;15.498;2022-12-07T08:26:47;29.08;;;12.88;;
57441;SDS011;43284;47.042;15.498;2022-12-07T08:29:13;28.38;;;13.48;;
57441;SDS011;43284;47.042;15.498;2022-12-07T08:31:39;29.40;;;13.73;;
57441;SDS011;43284;47.042;15.498;2022-12-07T08:34:04;35.88;;;13.38;;
57441;SDS011;43284;47.042;15.498;2022-12-07T08:36:30;31.48;;;13.60;;
57441;SDS011;43284;47.042;15.498;2022-12-07T08:38:55;28.05;;;13.13;;
57441;SDS011;43284;47.042;15.498;2022-12-07T08:41:21;27.48;;;13.23;;
57441;SDS011;43284;47.042;15.498;2022-12-07T08:43:46;32.60;;;13.93;;
57441;SDS011;43284;47.042;15.498;2022-12-07T08:48:51;30.67;;;14.02;;
57441;SDS011;43284;47.042;15.498;2022-12-07T08:51:20;32.45;;;14.75;;
57441;SDS011;43284;47.042;15.498;2022-12-07T08:53:47;37.83;;;15.30;;
57441;SDS011;43284;47.042;15.498;2022-12-07T08:56:14;32.17;;;13.90;;
57441;SDS011;43284;47.042;15.498;2022-12-07T08:58:39;29.02;;;13.70;;
57441;SDS011;43284;47.042;15.498;2022-12-07T09:01:06;30.98;;;14.73;;
57441;SDS011;43284;47.042;15.498;2022-12-07T09:03:31;33.13;;;14.48;;
57441;SDS011;43284;47.042;15.498;2022-12-07T09:05:58;37.05;;;15.15;;
57441;SDS011;43284;47.042;15.498;2022-12-07T09:08:26;31.27;;;15.18;;
57441;SDS011;43284;47.042;15.498;2022-12-07T09:11:00;32.40;;;15.68;;
57441;SDS011;43284;47.042;15.498;2022-12-07T09:13:25;33.80;;;14.38;;
57441;SDS011;43284;47.042;15.498;2022-12-07T09:15:51;35.47;;;16.20;;
57441;SDS011;43284;47.042;15.498;2022-12-07T09:18:16;37.35;;;16.85;;
57441;SDS011;43284;47.042;15.498;2022-12-07T09:20:42;33.03;;;14.73;;
57441;SDS011;43284;47.042;15.498;2022-12-07T09:23:07;37.15;;;15.55;;
57441;SDS011;43284;47.042;15.498;2022-12-07T09:25:34;41.38;;;15.73;;
57441;SDS011;43284;47.042;15.498;2022-12-07T09:28:00;39.65;;;16.52;;
57441;SDS011;43284;47.042;15.498;2022-12-07T09:30:26;33.17;;;16.65;;
57441;SDS011;43284;47.042;15.498;2022-12-07T09:32:53;36.22;;;15.88;;
57441;SDS011;43284;47.042;15.498;2022-12-07T09:35:19;34.22;;;15.38;;
57441;SDS011;43284;47.042;15.498;2022-12-07T09:37:45;34.97;;;15.85;;
57441;SDS011;43284;47.042;15.498;2022-12-07T09:40:11;30.50;;;15.05;;
57441;SDS011;43284;47.042;15.498;2022-12-07T09:42:39;32.92;;;15.82;;
57441;SDS011;43284;47.042;15.498;2022-12-07T09:45:17;30.02;;;14.60;;
57441;SDS011;43284;47.042;15.498;2022-12-07T09:47:47;29.52;;;14.70;;
57441;SDS011;43284;47.042;15.498;2022-12-07T09:50:14;29.05;;;13.43;;
57441;SDS011;43284;47.042;15.498;2022-12-07T09:52:42;33.25;;;14.45;;
57441;SDS011;43284;47.042;15.498;2022-12-07T09:55:11;30.42;;;14.18;;
57441;SDS011;43284;47.042;15.498;2022-12-07T09:57:38;32.47;;;15.38;;
57441;SDS011;43284;47.042;15.498;2022-12-07T10:00:06;35.55;;;14.45;;
57441;SDS011;43284;47.042;15.498;2022-12-07T10:02:40;30.15;;;13.82;;
57441;SDS011;43284;47.042;15.498;2022-12-07T10:05:10;30.40;;;14.45;;
57441;SDS011;43284;47.042;15.498;2022-12-07T10:07:45;28.45;;;14.57;;
57441;SDS011;43284;47.042;15.498;2022-12-07T10:10:19;30.58;;;14.70;;
57441;SDS011;43284;47.042;15.498;2022-12-07T10:12:53;32.97;;;14.18;;
57441;SDS011;43284;47.042;15.498;2022-12-07T10:15:51;35.60;;;14.40;;
57441;SDS011;43284;47.042;15.498;2022-12-07T10:18:40;40.08;;;15.23;;
57441;SDS011;43284;47.042;15.498;2022-12-07T10:21:15;36.40;;;16.10;;
57441;SDS011;43284;47.042;15.498;2022-12-07T10:23:58;34.58;;;15.15;;
57441;SDS011;43284;47.042;15.498;2022-12-07T10:29:22;35.97;;;16.92;;
57441;SDS011;43284;47.042;15.498;2022-12-07T10:31:46;37.75;;;16.10;;
57441;SDS011;43284;47.042;15.498;2022-12-07T10:34:38;36.88;;;15.65;;
57441;SDS011;43284;47.042;15.498;2022-12-07T10:37:15;37.05;;;15.48;;
57441;SDS011;43284;47.042;15.498;2022-12-07T10:39:44;39.40;;;17.55;;
57441;SDS011;43284;47.042;15.498;2022-12-07T10:42:31;39.05;;;16.67;;
57441;SDS011;43284;47.042;15.498;2022-12-07T10:45:14;38.30;;;17.67;;
57441;SDS011;43284;47.042;15.498;2022-12-07T10:47:48;43.42;;;16.60;;
57441;SDS011;43284;47.042;15.498;2022-12-07T10:50:31;32.33;;;16.35;;
57441;SDS011;43284;47.042;15.498;2022-12-07T11:03:52;39.53;;;17.13;;
57441;SDS011;43284;47.042;15.498;2022-12-07T11:11:47;45.72;;;17.70;;
57441;SDS011;43284;47.042;15.498;2022-12-07T11:31:21;33.63;;;15.52;;
57441;SDS011;43284;47.042;15.498;2022-12-07T11:36:40;32.17;;;15.82;;
57441;SDS011;43284;47.042;15.498;2022-12-07T11:39:26;41.03;;;15.65;;
57441;SDS011;43284;47.042;15.498;2022-12-07T11:42:33;37.13;;;16.48;;
57441;SDS011;43284;47.042;15.498;2022-12-07T11:47:47;37.67;;;15.40;;
57441;SDS011;43284;47.042;15.498;2022-12-07T11:50:21;29.27;;;15.13;;
57441;SDS011;43284;47.042;15.498;2022-12-07T12:00:55;34.20;;;16.08;;
57441;SDS011;43284;47.042;15.498;2022-12-07T12:03:33;35.67;;;16.58;;
57441;SDS011;43284;47.042;15.498;2022-12-07T12:06:04;34.35;;;16.40;;
57441;SDS011;43284;47.042;15.498;2022-12-07T12:08:31;30.88;;;16.02;;
57441;SDS011;43284;47.042;15.498;2022-12-07T12:19:33;33.03;;;15.27;;
57441;SDS011;43284;47.042;15.498;2022-12-07T12:22:10;39.38;;;15.95;;
57441;SDS011;43284;47.042;15.498;2022-12-07T12:24:45;36.00;;;15.68;;
57441;SDS011;43284;47.042;15.498;2022-12-07T12:27:27;33.42;;;16.13;;
57441;SDS011;43284;47.042;15.498;2022-12-07T12:29:59;35.67;;;16.40;;
57441;SDS011;43284;47.042;15.498;2022-12-07T12:42:47;38.75;;;15.95;;
57441;SDS011;43284;47.042;15.498;2022-12-07T12:45:23;32.42;;;14.27;;
57441;SDS011;43284;47.042;15.498;2022-12-07T12:50:44;34.38;;;15.48;;
57441;SDS011;43284;47.042;15.498;2022-12-07T12:53:45;34.03;;;15.60;;
57441;SDS011;43284;47.042;15.498;2022-12-07T12:56:16;32.10;;;14.85;;
57441;SDS011;43284;47.042;15.498;2022-12-07T13:07:57;27.05;;;13.77;;
57441;SDS011;43284;47.042;15.498;2022-12-07T13:26:54;32.00;;;14.43;;
57441;SDS011;43284;47.042;15.498;2022-12-07T13:31:52;32.28;;;15.43;;
57441;SDS011;43284;47.042;15.498;2022-12-07T13:34:39;35.80;;;15.48;;
57441;SDS011;43284;47.042;15.498;2022-12-07T13:42:44;32.35;;;15.85;;
57441;SDS011;43284;47.042;15.498;2022-12-07T13:45:29;32.78;;;16.50;;
57441;SDS011;43284;47.042;15.498;2022-12-07T13:53:20;41.67;;;18.08;;
57441;SDS011;43284;47.042;15.498;2022-12-07T13:55:46;38.50;;;16.17;;
57441;SDS011;43284;47.042;15.498;2022-12-07T13:58:12;41.35;;;17.58;;
57441;SDS011;43284;47.042;15.498;2022-12-07T14:00:39;33.20;;;16.80;;
57441;SDS011;43284;47.042;15.498;2022-12-07T14:05:38;32.15;;;16.38;;
57441;SDS011;43284;47.042;15.498;2022-12-07T14:08:21;35.28;;;17.05;;
57441;SDS011;43284;47.042;15.498;2022-12-07T14:13:30;35.10;;;15.82;;
57441;SDS011;43284;47.042;15.498;2022-12-07T14:19:05;40.53;;;16.63;;
57441;SDS011;43284;47.042;15.498;2022-12-07T14:22:05;29.90;;;16.13;;
57441;SDS011;43284;47.042;15.498;2022-12-07T14:24:40;41.03;;;17.15;;
57441;SDS011;43284;47.042;15.498;2022-12-07T14:27:15;31.17;;;15.90;;
57441;SDS011;43284;47.042;15.498;2022-12-07T14:29:47;45.15;;;17.85;;
57441;SDS011;43284;47.042;15.498;2022-12-07T14:32:17;34.53;;;17.58;;
57441;SDS011;43284;47.042;15.498;2022-12-07T14:34:57;38.42;;;15.43;;
57441;SDS011;43284;47.042;15.498;2022-12-07T14:37:23;35.40;;;16.45;;
57441;SDS011;43284;47.042;15.498;2022-12-07T14:39:49;35.33;;;16.70;;
57441;SDS011;43284;47.042;15.498;2022-12-07T14:42:15;32.03;;;16.52;;
57441;SDS011;43284;47.042;15.498;2022-12-07T14:44:41;39.03;;;17.33;;
57441;SDS011;43284;47.042;15.498;2022-12-07T14:47:08;34.05;;;16.65;;
57441;SDS011;43284;47.042;15.498;2022-12-07T14:49:35;35.75;;;16.80;;
57441;SDS011;43284;47.042;15.498;2022-12-07T14:52:01;33.28;;;16.25;;
57441;SDS011;43284;47.042;15.498;2022-12-07T14:54:26;34.40;;;17.48;;
57441;SDS011;43284;47.042;15.498;2022-12-07T14:56:55;31.98;;;16.38;;
57441;SDS011;43284;47.042;15.498;2022-12-07T14:59:21;34.50;;;16.55;;
57441;SDS011;43284;47.042;15.498;2022-12-07T15:01:46;40.22;;;16.80;;
57441;SDS011;43284;47.042;15.498;2022-12-07T15:04:12;38.53;;;16.60;;
57441;SDS011;43284;47.042;15.498;2022-12-07T15:06:38;36.83;;;17.38;;
57441;SDS011;43284;47.042;15.498;2022-12-07T15:09:04;34.95;;;17.02;;
57441;SDS011;43284;47.042;15.498;2022-12-07T15:11:30;41.40;;;17.33;;
57441;SDS011;43284;47.042;15.498;2022-12-07T15:13:55;38.28;;;17.75;;
57441;SDS011;43284;47.042;15.498;2022-12-07T15:16:33;33.95;;;16.77;;
57441;SDS011;43284;47.042;15.498;2022-12-07T15:18:59;39.67;;;17.92;;
57441;SDS011;43284;47.042;15.498;2022-12-07T15:21:25;39.17;;;17.38;;
57441;SDS011;43284;47.042;15.498;2022-12-07T15:23:51;37.97;;;17.00;;
57441;SDS011;43284;47.042;15.498;2022-12-07T15:26:16;34.40;;;16.25;;
57441;SDS011;43284;47.042;15.498;2022-12-07T15:28:42;36.60;;;16.95;;
57441;SDS011;43284;47.042;15.498;2022-12-07T15:31:14;34.70;;;17.13;;
57441;SDS011;43284;47.042;15.498;2022-12-07T15:33:41;34.90;;;15.75;;
57441;SDS011;43284;47.042;15.498;2022-12-07T15:36:07;35.22;;;16.48;;
57441;SDS011;43284;47.042;15.498;2022-12-07T15:38:36;35.70;;;17.20;;
57441;SDS011;43284;47.042;15.498;2022-12-07T15:41:02;43.90;;;18.33;;
57441;SDS011;43284;47.042;15.498;2022-12-07T15:43:29;39.42;;;18.50;;
57441;SDS011;43284;47.042;15.498;2022-12-07T15:46:13;35.22;;;17.00;;
57441;SDS011;43284;47.042;15.498;2022-12-07T15:48:39;37.03;;;17.50;;
57441;SDS011;43284;47.042;15.498;2022-12-07T15:51:06;37.60;;;16.95;;
57441;SDS011;43284;47.042;15.498;2022-12-07T15:53:33;42.00;;;17.90;;
57441;SDS011;43284;47.042;15.498;2022-12-07T15:56:00;30.98;;;16.38;;
57441;SDS011;43284;47.042;15.498;2022-12-07T15:58:25;34.45;;;16.65;;
57441;SDS011;43284;47.042;15.498;2022-12-07T16:00:51;38.67;;;17.38;;
57441;SDS011;43284;47.042;15.498;2022-12-07T16:03:17;39.83;;;17.65;;
57441;SDS011;43284;47.042;15.498;2022-12-07T16:05:48;35.05;;;16.90;;
57441;SDS011;43284;47.042;15.498;2022-12-07T16:08:14;38.25;;;17.35;;
57441;SDS011;43284;47.042;15.498;2022-12-07T16:10:40;35.40;;;16.35;;
57441;SDS011;43284;47.042;15.498;2022-12-07T16:13:08;37.38;;;17.90;;
57441;SDS011;43284;47.042;15.498;2022-12-07T16:15:37;35.53;;;15.73;;
57441;SDS011;43284;47.042;15.498;2022-12-07T16:18:06;36.60;;;17.00;;
57441;SDS011;43284;47.042;15.498;2022-12-07T16:20:31;34.03;;;15.88;;
57441;SDS011;43284;47.042;15.498;2022-12-07T16:22:57;39.05;;;18.60;;
57441;SDS011;43284;47.042;15.498;2022-12-07T16:25:23;35.13;;;16.88;;
57441;SDS011;43284;47.042;15.498;2022-12-07T16:27:48;37.08;;;17.45;;
57441;SDS011;43284;47.042;15.498;2022-12-07T16:30:14;38.60;;;18.85;;
57441;SDS011;43284;47.042;15.498;2022-12-07T16:32:41;38.78;;;18.02;;
57441;SDS011;43284;47.042;15.498;2022-12-07T16:35:07;44.08;;;19.67;;
57441;SDS011;43284;47.042;15.498;2022-12-07T16:37:34;37.13;;;18.15;;
57441;SDS011;43284;47.042;15.498;2022-12-07T16:39:59;40.20;;;19.70;;
57441;SDS011;43284;47.042;15.498;2022-12-07T16:42:25;34.65;;;17.08;;
57441;SDS011;43284;47.042;15.498;2022-12-07T16:44:51;35.00;;;17.55;;
57441;SDS011;43284;47.042;15.498;2022-12-07T16:47:17;35.00;;;16.35;;
57441;SDS011;43284;47.042;15.498;2022-12-07T16:49:43;37.08;;;17.00;;
57441;SDS011;43284;47.042;15.498;2022-12-07T16:52:08;34.45;;;17.30;;
57441;SDS011;43284;47.042;15.498;2022-12-07T16:54:34;38.78;;;18.50;;
57441;SDS011;43284;47.042;15.498;2022-12-07T16:57:01;35.63;;;17.42;;